createdAt,value
2022-10-18T07:29:35.112Z,98.25
2022-10-18T07:30:34.939Z,96.98
2022-10-18T07:31:34.927Z,96.12
2022-10-18T07:32:34.917Z,95.47
2022-10-18T07:33:34.920Z,95.42
2022-10-18T07:34:34.927Z,94.57
2022-10-18T07:35:34.879Z,93.51
2022-10-18T07:36:34.877Z,92.14
2022-10-18T07:37:35.229Z,91.24
2022-10-18T07:38:34.849Z,89.98
2022-10-18T07:39:34.835Z,89.77
2022-10-18T07:40:34.835Z,89.32
2022-10-18T07:41:34.818Z,89.43
2022-10-18T07:42:37.848Z,89.17
2022-10-18T07:43:34.806Z,88.96
2022-10-18T07:44:34.786Z,89.98
2022-10-18T07:45:34.859Z,90.64
2022-10-18T07:46:34.767Z,90.34
2022-10-18T07:47:35.364Z,89.59
2022-10-18T07:48:34.749Z,88.98
2022-10-18T07:49:34.862Z,89.28
2022-10-18T07:50:34.881Z,89.89
2022-10-18T07:51:34.719Z,89.89
2022-10-18T07:52:34.724Z,89.45
2022-10-18T07:53:34.710Z,89.75
2022-10-18T07:54:34.704Z,89.81
2022-10-18T07:55:34.681Z,89.40
2022-10-18T07:56:34.719Z,88.09
2022-10-18T07:57:37.649Z,87.88
2022-10-18T07:58:34.651Z,87.58
2022-10-18T07:59:34.627Z,87.74
2022-10-18T08:00:34.621Z,87.13
2022-10-18T08:01:34.675Z,86.79
2022-10-18T08:02:34.600Z,87.50
2022-10-18T08:03:34.598Z,86.35
2022-10-18T08:04:34.623Z,87.15
2022-10-18T08:05:34.589Z,85.94
2022-10-18T08:06:34.578Z,85.74
2022-10-18T08:07:34.722Z,86.55
2022-10-18T08:08:34.547Z,86.51
2022-10-18T08:09:34.538Z,85.80
2022-10-18T08:10:34.517Z,85.90
2022-10-18T08:11:34.526Z,86.61
2022-10-18T08:12:37.496Z,86.87
2022-10-18T08:13:34.521Z,85.76
2022-10-18T08:14:34.478Z,85.96
2022-10-18T08:15:34.469Z,86.43
2022-10-18T08:16:34.471Z,85.72
2022-10-18T08:17:34.825Z,86.13
2022-10-18T08:18:34.426Z,86.29
2022-10-18T08:19:34.438Z,85.98
2022-10-18T08:20:35.408Z,85.14
2022-10-18T08:21:34.448Z,85.34
2022-10-18T08:22:34.389Z,84.23
2022-10-18T08:23:34.389Z,84.49
2022-10-18T08:24:34.396Z,84.80
2022-10-18T08:26:34.362Z,85.05
2022-10-18T08:27:37.340Z,84.11
2022-10-18T08:28:34.403Z,81.43
2022-10-18T08:29:34.416Z,83.20
2022-10-18T08:30:34.319Z,82.90
2022-10-18T08:31:34.312Z,83.81
2022-10-18T08:32:34.709Z,83.91
2022-10-18T08:33:34.278Z,83.26
2022-10-18T08:34:34.329Z,83.67
2022-10-18T08:35:34.263Z,84.57
2022-10-18T08:36:34.300Z,84.37
2022-10-18T08:37:34.752Z,82.22
2022-10-18T08:38:34.233Z,82.42
2022-10-18T08:39:34.213Z,82.12
2022-10-18T08:40:34.263Z,82.28
2022-10-18T08:41:34.192Z,80.88
2022-10-18T08:42:37.173Z,79.53
2022-10-18T08:44:34.222Z,77.12
2022-10-18T08:45:42.676Z,76.12
2022-10-18T08:46:34.135Z,75.92
2022-10-18T08:47:34.558Z,76.82
2022-10-18T08:48:34.123Z,74.81
2022-10-18T08:49:46.852Z,75.92
2022-10-18T08:50:34.110Z,74.41
2022-10-18T08:51:34.089Z,73.61
2022-10-18T08:52:34.165Z,73.71
2022-10-18T08:53:36.252Z,73.91
2022-10-18T08:54:34.051Z,75.68
2022-10-18T08:55:34.060Z,75.08
2022-10-18T08:56:34.042Z,74.48
2022-10-18T08:57:37.044Z,74.88
2022-10-18T08:58:34.041Z,74.98
2022-10-18T08:59:33.997Z,74.57
2022-10-18T09:00:34.030Z,74.27
2022-10-18T09:01:34.022Z,73.84
2022-10-18T09:02:34.335Z,73.24
2022-10-18T09:03:34.025Z,73.03
2022-10-18T09:04:33.945Z,73.50
2022-10-18T09:05:33.957Z,74.40
2022-10-18T09:06:33.931Z,73.27
2022-10-18T09:07:33.917Z,72.16
2022-10-18T09:08:33.908Z,71.56
2022-10-18T09:09:33.913Z,73.36
2022-10-18T09:10:33.898Z,72.16
2022-10-18T09:11:33.882Z,73.97
2022-10-18T09:12:36.931Z,73.16
2022-10-18T09:13:33.874Z,71.96
2022-10-18T09:14:33.855Z,71.39
2022-10-18T09:15:33.863Z,71.80
2022-10-18T09:16:33.833Z,73.50
2022-10-18T09:17:33.853Z,72.60
2022-10-18T09:18:33.941Z,73.10
2022-10-18T09:19:33.806Z,73.57
2022-10-18T09:20:33.795Z,73.20
2022-10-18T09:21:33.779Z,73.77
2022-10-18T09:22:34.095Z,73.36
2022-10-18T09:23:33.772Z,74.13
2022-10-18T09:24:33.738Z,72.33
2022-10-18T09:25:33.748Z,72.33
2022-10-18T09:26:33.734Z,72.39
2022-10-18T09:27:36.715Z,71.59
2022-10-18T09:28:33.777Z,71.80
2022-10-18T09:29:33.703Z,71.69
2022-10-18T09:30:33.683Z,70.79
2022-10-18T09:31:33.671Z,71.03
2022-10-18T09:32:34.093Z,71.93
2022-10-18T09:33:33.651Z,71.53
2022-10-18T09:34:33.656Z,71.83
2022-10-18T09:35:33.633Z,72.23
2022-10-18T09:36:33.626Z,72.03
2022-10-18T09:37:33.604Z,71.43
2022-10-18T09:38:34.053Z,72.93
2022-10-18T09:39:33.598Z,71.63
2022-10-18T09:40:33.574Z,71.73
2022-10-18T09:41:33.568Z,71.03
2022-10-18T09:42:36.543Z,73.00
2022-10-18T09:43:33.572Z,72.09
2022-10-18T09:44:33.534Z,71.19
2022-10-18T09:45:33.529Z,71.19
2022-10-18T09:46:33.507Z,71.16
2022-10-18T09:47:33.501Z,71.56
2022-10-18T09:48:33.495Z,72.06
2022-10-18T09:49:33.518Z,73.06
2022-10-18T09:50:33.461Z,72.03
2022-10-18T09:51:33.449Z,71.53
2022-10-18T09:52:33.829Z,69.62
2022-10-18T09:53:33.439Z,71.42
2022-10-18T09:54:33.466Z,71.16
2022-10-18T09:55:33.407Z,69.56
2022-10-18T09:56:37.870Z,69.79
2022-10-18T09:57:36.383Z,70.76
2022-10-18T09:58:33.399Z,70.56
2022-10-18T09:59:33.373Z,71.73
2022-10-18T10:00:33.355Z,69.53
2022-10-18T10:01:33.347Z,70.73
2022-10-18T10:02:33.367Z,70.39
2022-10-18T10:03:33.329Z,68.99
2022-10-18T10:04:33.317Z,69.79
2022-10-18T10:05:33.341Z,69.09
2022-10-18T10:06:33.301Z,69.12
2022-10-18T10:07:34.846Z,69.66
2022-10-18T10:08:33.274Z,69.86
2022-10-18T10:09:33.263Z,70.76
2022-10-18T10:10:33.272Z,70.03
2022-10-18T10:11:33.241Z,68.82
2022-10-18T10:12:36.265Z,68.82
2022-10-18T10:13:33.233Z,69.79
2022-10-18T10:14:33.206Z,68.69
2022-10-18T10:15:37.088Z,69.39
2022-10-18T10:16:33.187Z,69.09
2022-10-18T10:17:33.471Z,68.79
2022-10-18T10:18:33.186Z,67.89
2022-10-18T10:19:33.158Z,68.59
2022-10-18T10:20:33.158Z,68.29
2022-10-18T10:21:33.134Z,69.36
2022-10-18T10:22:33.118Z,68.76
2022-10-18T10:23:33.132Z,69.16
2022-10-18T10:24:33.101Z,66.26
2022-10-18T10:25:33.095Z,66.96
2022-10-18T10:26:33.073Z,66.19
2022-10-18T10:27:44.385Z,65.79
2022-10-18T10:28:33.147Z,66.99
2022-10-18T10:29:44.170Z,66.89
2022-10-18T10:30:33.039Z,67.40
2022-10-18T10:31:33.028Z,68.79
2022-10-18T10:32:33.018Z,68.19
2022-10-18T10:33:33.002Z,67.19
2022-10-18T10:34:33.000Z,67.19
2022-10-18T10:35:52.524Z,68.39
2022-10-18T10:36:33.974Z,68.89
2022-10-18T10:37:33.356Z,68.19
2022-10-18T10:38:32.957Z,67.40
2022-10-18T10:39:33.012Z,66.99
2022-10-18T10:40:32.930Z,66.99
2022-10-18T10:42:35.910Z,67.66
2022-10-18T10:43:37.557Z,67.96
2022-10-18T10:44:32.913Z,66.63
2022-10-18T10:45:32.883Z,66.73
2022-10-18T10:46:32.868Z,66.56
2022-10-18T10:47:32.852Z,66.73
2022-10-18T10:48:33.504Z,66.33
2022-10-18T10:49:40.178Z,66.43
2022-10-18T10:51:32.846Z,66.63
2022-10-18T10:52:32.818Z,65.93
2022-10-18T10:53:32.800Z,66.63
2022-10-18T10:54:32.788Z,66.30
2022-10-18T10:55:35.237Z,66.39
2022-10-18T10:56:32.789Z,66.17
2022-10-18T10:57:35.746Z,65.73
2022-10-18T10:58:32.758Z,64.67
2022-10-18T10:59:32.807Z,64.77
2022-10-18T11:00:32.770Z,64.87
2022-10-18T11:01:32.708Z,65.64
2022-10-18T11:02:33.047Z,64.74
2022-10-18T11:03:32.740Z,64.84
2022-10-18T11:04:44.020Z,64.84
2022-10-18T11:05:32.677Z,64.11
2022-10-18T11:06:32.668Z,64.31
2022-10-18T11:07:32.642Z,63.94
2022-10-18T11:08:32.655Z,63.44
2022-10-18T11:09:32.618Z,63.97
2022-10-18T11:10:32.621Z,63.97
2022-10-18T11:11:32.621Z,62.67
2022-10-18T11:12:35.753Z,62.87
2022-10-18T11:13:32.596Z,62.87
2022-10-18T11:14:32.587Z,63.17
2022-10-18T11:15:32.564Z,62.87
2022-10-18T11:16:32.597Z,61.87
2022-10-18T11:17:39.563Z,61.68
2022-10-18T11:18:32.536Z,61.87
2022-10-18T11:19:32.533Z,63.37
2022-10-18T11:20:32.516Z,62.97
2022-10-18T11:21:40.618Z,63.67
2022-10-18T11:22:32.893Z,62.77
2022-10-18T11:23:32.488Z,63.17
2022-10-18T11:24:32.470Z,63.37
2022-10-18T11:25:32.461Z,63.27
2022-10-18T11:26:32.452Z,63.77
2022-10-18T11:27:35.473Z,62.87
2022-10-18T11:28:41.528Z,62.87
2022-10-18T11:29:32.423Z,62.27
2022-10-18T11:30:32.413Z,62.81
2022-10-18T11:31:32.452Z,62.90
2022-10-18T11:32:32.615Z,63.70
2022-10-18T11:34:07.171Z,63.40
2022-10-18T11:34:33.501Z,62.97
2022-10-18T11:35:32.355Z,62.74
2022-10-18T11:36:34.052Z,62.54
2022-10-18T11:37:39.532Z,62.74
2022-10-18T11:38:32.330Z,62.74
2022-10-18T11:39:32.326Z,62.34
2022-10-18T11:40:32.317Z,63.14
2022-10-18T11:41:32.342Z,62.24
2022-10-18T11:42:39.696Z,61.65
2022-10-18T11:43:50.540Z,61.77
2022-10-18T11:44:33.272Z,61.98
2022-10-18T11:45:32.265Z,62.77
2022-10-18T11:46:32.254Z,63.54
2022-10-18T11:47:32.426Z,62.45
2022-10-18T11:48:32.230Z,62.94
2022-10-18T11:49:32.221Z,63.51
2022-10-18T11:50:32.222Z,62.51
2022-10-18T11:51:34.357Z,61.99
2022-10-18T11:52:33.223Z,61.49
2022-10-18T11:53:32.339Z,62.48
2022-10-18T11:54:32.234Z,61.99
2022-10-18T11:55:33.184Z,62.48
2022-10-18T11:56:32.155Z,61.88
2022-10-18T11:57:35.576Z,61.46
2022-10-18T11:58:32.138Z,60.96
2022-10-18T11:59:32.191Z,62.05
2022-10-18T12:00:32.110Z,61.46
2022-10-18T12:01:32.098Z,60.76
2022-10-18T12:02:32.533Z,61.66
2022-10-18T12:03:32.081Z,61.16
2022-10-18T12:04:32.098Z,60.99
2022-10-18T12:05:33.059Z,61.79
2022-10-18T12:06:32.061Z,61.22
2022-10-18T12:07:32.567Z,60.82
2022-10-18T12:08:32.021Z,61.94
2022-10-18T12:09:32.020Z,61.55
2022-10-18T12:10:44.262Z,61.05
2022-10-18T12:11:33.057Z,61.74
2022-10-18T12:12:35.241Z,60.95
2022-10-18T12:13:31.991Z,61.25
2022-10-18T12:14:31.973Z,62.34
2022-10-18T12:15:31.945Z,62.01
2022-10-18T12:16:50.429Z,62.29
2022-10-18T12:17:43.147Z,61.69
2022-10-18T12:18:32.928Z,60.99
2022-10-18T12:19:31.918Z,61.16
2022-10-18T12:20:31.918Z,61.36
2022-10-18T12:21:31.944Z,61.06
2022-10-18T12:22:32.182Z,61.16
2022-10-18T12:23:31.876Z,61.55
2022-10-18T12:24:31.868Z,61.39
2022-10-18T12:25:31.910Z,62.08
2022-10-18T12:26:31.867Z,62.59
2022-10-18T12:27:34.961Z,62.48
2022-10-18T12:28:31.864Z,62.38
2022-10-18T12:29:31.804Z,61.69
2022-10-18T12:30:31.821Z,62.48
2022-10-18T12:31:31.790Z,62.88
2022-10-18T12:32:32.128Z,62.78
2022-10-18T12:33:31.787Z,62.98
2022-10-18T12:34:31.751Z,62.41
2022-10-18T12:35:31.803Z,63.51
2022-10-18T12:36:31.741Z,63.21
2022-10-18T12:37:32.073Z,62.45
2022-10-18T12:38:31.714Z,62.74
2022-10-18T12:39:43.323Z,63.57
2022-10-18T12:40:32.875Z,64.07
2022-10-18T12:41:31.687Z,63.77
2022-10-18T12:42:34.664Z,64.07
2022-10-18T12:43:31.781Z,65.07
2022-10-18T12:44:31.676Z,64.27
2022-10-18T12:45:31.644Z,64.07
2022-10-18T12:46:31.658Z,65.34
2022-10-18T12:47:31.918Z,63.44
2022-10-18T12:48:31.617Z,62.15
2022-10-18T12:49:31.702Z,64.81
2022-10-18T12:50:31.597Z,63.21
2022-10-18T12:51:31.640Z,63.11
2022-10-18T12:52:31.568Z,62.98
2022-10-18T12:53:31.560Z,63.58
2022-10-18T12:54:31.553Z,63.35
2022-10-18T12:55:31.604Z,62.95
2022-10-18T12:56:31.537Z,64.04
2022-10-18T12:57:34.693Z,63.55
2022-10-18T12:58:31.536Z,63.65
2022-10-18T12:59:31.500Z,63.55
2022-10-18T13:00:31.563Z,63.45
2022-10-18T13:01:31.554Z,63.05
2022-10-18T13:02:31.847Z,63.35
2022-10-18T13:03:31.465Z,63.35
2022-10-18T13:04:31.464Z,63.75
2022-10-18T13:05:41.997Z,63.22
2022-10-18T13:06:32.414Z,62.42
2022-10-18T13:07:32.000Z,62.82
2022-10-18T13:08:31.415Z,62.92
2022-10-18T13:09:31.407Z,62.55
2022-10-18T13:10:31.390Z,63.88
2022-10-18T13:11:31.366Z,63.98
2022-10-18T13:12:34.480Z,63.98
2022-10-18T13:13:39.568Z,63.38
2022-10-18T13:14:31.338Z,63.88
2022-10-18T13:15:34.171Z,63.28
2022-10-18T13:16:31.318Z,63.45
2022-10-18T13:17:31.618Z,62.88
2022-10-18T13:18:31.347Z,61.99
2022-10-18T13:19:31.290Z,63.21
2022-10-18T13:20:31.291Z,63.41
2022-10-18T13:21:31.281Z,63.31
2022-10-18T13:22:31.261Z,64.28
2022-10-18T13:23:32.722Z,63.98
2022-10-18T13:24:31.232Z,63.55
2022-10-18T13:25:31.283Z,62.85
2022-10-18T13:26:31.215Z,63.02
2022-10-18T13:27:36.614Z,63.12
2022-10-18T13:28:31.273Z,61.53
2022-10-18T13:29:31.196Z,60.03
2022-10-18T13:30:31.282Z,60.93
2022-10-18T13:31:31.163Z,63.02
2022-10-18T13:32:31.397Z,62.55
2022-10-18T13:33:31.144Z,63.35
2022-10-18T13:34:31.134Z,63.75
2022-10-18T13:35:31.127Z,63.55
2022-10-18T13:36:31.117Z,63.95
2022-10-18T13:37:31.214Z,63.38
2022-10-18T13:38:31.088Z,63.78
2022-10-18T13:39:31.087Z,63.98
2022-10-18T13:40:31.076Z,63.58
2022-10-18T13:41:34.334Z,63.18
2022-10-18T13:42:34.413Z,63.68
2022-10-18T13:43:31.068Z,63.48
2022-10-18T13:44:31.031Z,62.31
2022-10-18T13:45:31.033Z,62.81
2022-10-18T13:46:31.011Z,63.31
2022-10-18T13:47:31.002Z,62.91
2022-10-18T13:48:31.023Z,62.71
2022-10-18T13:49:30.972Z,62.91
2022-10-18T13:50:30.976Z,62.51
2022-10-18T13:51:30.952Z,63.41
2022-10-18T13:52:31.209Z,63.41
2022-10-18T13:53:30.940Z,63.81
2022-10-18T13:54:30.993Z,64.11
2022-10-18T13:55:30.918Z,63.71
2022-10-18T13:56:30.912Z,64.01
2022-10-18T13:57:33.894Z,63.91
2022-10-18T13:58:30.903Z,63.51
2022-10-18T13:59:30.896Z,64.21
2022-10-18T14:00:30.865Z,64.51
2022-10-18T14:01:30.875Z,64.81
2022-10-18T14:02:50.516Z,64.90
2022-10-18T14:03:55.758Z,64.81
2022-10-18T14:04:31.828Z,65.01
2022-10-18T14:05:30.828Z,64.94
2022-10-18T14:06:30.808Z,65.83
2022-10-18T14:07:30.798Z,67.03
2022-10-18T14:08:30.842Z,67.23
2022-10-18T14:09:43.655Z,67.57
2022-10-18T14:10:43.847Z,67.76
2022-10-18T14:11:31.750Z,68.06
2022-10-18T14:12:34.010Z,69.06
2022-10-18T14:13:30.773Z,69.46
2022-10-18T14:14:30.713Z,69.76
2022-10-18T14:15:30.722Z,69.46
2022-10-18T14:16:30.706Z,69.26
2022-10-18T14:17:30.752Z,70.29
2022-10-18T14:18:31.826Z,70.89
2022-10-18T14:19:30.694Z,71.99
2022-10-18T14:20:30.661Z,72.59
2022-10-18T14:21:31.685Z,72.49
2022-10-18T14:22:30.949Z,73.19
2022-10-18T14:23:30.655Z,73.39
2022-10-18T14:24:30.618Z,73.82
2022-10-18T14:25:30.607Z,72.13
2022-10-18T14:26:30.623Z,69.76
2022-10-18T14:27:33.829Z,69.06
2022-10-18T14:28:48.031Z,71.36
2022-10-18T14:29:31.619Z,73.79
2022-10-18T14:30:30.560Z,75.29
2022-10-18T14:31:30.540Z,76.83
2022-10-18T14:32:30.533Z,77.73
2022-10-18T14:33:30.529Z,78.17
2022-10-18T14:34:30.540Z,78.56
2022-10-18T14:35:32.982Z,77.76
2022-10-18T14:36:30.495Z,77.17
2022-10-18T14:37:30.878Z,77.06
2022-10-18T14:38:30.471Z,77.80
2022-10-18T14:39:30.482Z,78.70
2022-10-18T14:40:30.444Z,78.77
2022-10-18T14:41:30.442Z,78.91
2022-10-18T14:42:33.423Z,78.20
2022-10-18T14:43:30.540Z,78.41
2022-10-18T14:44:30.425Z,78.77
2022-10-18T14:45:30.416Z,78.56
2022-10-18T14:46:31.778Z,78.43
2022-10-18T14:47:30.781Z,78.23
2022-10-18T14:48:30.375Z,77.49
2022-10-18T14:50:30.905Z,76.09
2022-10-18T14:51:30.347Z,76.35
2022-10-18T14:52:35.109Z,75.96
2022-10-18T14:53:30.310Z,76.35
2022-10-18T14:54:31.947Z,76.06
2022-10-18T14:55:30.326Z,76.26
2022-10-18T14:56:30.286Z,76.86
2022-10-18T14:57:33.726Z,77.06
2022-10-18T14:58:30.278Z,77.15
2022-10-18T14:59:30.241Z,77.36
2022-10-18T15:00:30.286Z,77.66
2022-10-18T15:01:30.300Z,77.69
2022-10-18T15:02:30.497Z,78.09
2022-10-18T15:03:30.213Z,77.89
2022-10-18T15:04:30.199Z,77.93
2022-10-18T15:05:30.223Z,76.83
2022-10-18T15:06:30.205Z,78.53
2022-10-18T15:07:30.411Z,78.83
2022-10-18T15:08:30.175Z,78.83
2022-10-18T15:09:30.147Z,78.93
2022-10-18T15:10:30.187Z,78.83
2022-10-18T15:11:30.134Z,78.63
2022-10-18T15:12:40.879Z,74.16
2022-10-18T15:13:31.114Z,73.93
2022-10-18T15:14:30.123Z,76.53
2022-10-18T15:15:30.078Z,77.03
2022-10-18T15:16:30.081Z,78.33
2022-10-18T15:17:30.067Z,78.56
2022-10-18T15:19:30.067Z,77.97
2022-10-18T15:20:30.028Z,78.36
2022-10-18T15:21:30.048Z,78.67
2022-10-18T15:22:32.399Z,79.36
2022-10-18T15:23:30.010Z,79.47
2022-10-18T15:24:29.988Z,79.57
2022-10-18T15:25:31.969Z,79.60
2022-10-18T15:26:30.182Z,79.60
2022-10-18T15:27:33.248Z,80.21
2022-10-18T15:29:29.933Z,80.24
2022-10-18T15:30:29.932Z,80.15
2022-10-18T15:31:29.927Z,80.38
2022-10-18T15:32:30.141Z,80.98
2022-10-18T15:33:29.909Z,80.98
2022-10-18T15:34:29.907Z,80.79
2022-10-18T15:35:29.898Z,81.42
2022-10-18T15:36:29.904Z,81.96
2022-10-18T15:37:30.103Z,82.37
2022-10-18T15:38:29.849Z,82.57
2022-10-18T15:39:29.828Z,82.87
2022-10-18T15:40:29.835Z,81.87
2022-10-18T15:41:29.816Z,82.46
2022-10-18T15:42:32.818Z,83.11
2022-10-18T15:43:29.809Z,83.11
2022-10-18T15:44:29.785Z,83.51
2022-10-18T15:45:29.778Z,83.75
2022-10-18T15:46:29.766Z,84.05
2022-10-18T15:47:29.892Z,84.49
2022-10-18T15:48:29.741Z,84.80
2022-10-18T15:49:29.731Z,85.14
2022-10-18T15:50:29.718Z,85.53
2022-10-18T15:51:29.701Z,85.53
2022-10-18T15:52:33.846Z,85.84
2022-10-18T15:53:29.698Z,86.38
2022-10-18T15:54:29.683Z,86.58
2022-10-18T15:55:29.708Z,86.68
2022-10-18T15:56:29.669Z,86.68
2022-10-18T15:57:32.971Z,86.38
2022-10-18T15:58:29.696Z,86.38
2022-10-18T15:59:29.624Z,86.79
2022-10-18T16:00:29.616Z,87.02
2022-10-18T16:01:29.674Z,86.83
2022-10-18T16:02:29.606Z,87.02
2022-10-18T16:03:29.592Z,87.02
2022-10-18T16:04:29.594Z,87.43
2022-10-18T16:05:29.574Z,87.98
2022-10-18T16:06:29.568Z,88.38
2022-10-18T16:07:29.767Z,89.03
2022-10-18T16:08:29.538Z,89.77
2022-10-18T16:09:29.529Z,90.28
2022-10-18T16:10:29.525Z,90.82
2022-10-18T16:11:29.514Z,91.02
2022-10-18T16:12:32.490Z,91.42
2022-10-18T16:13:29.500Z,91.63
2022-10-18T16:14:29.501Z,91.42
2022-10-18T16:15:29.460Z,91.27
2022-10-18T16:16:29.460Z,91.47
2022-10-18T16:17:29.584Z,91.57
2022-10-18T16:18:29.433Z,91.77
2022-10-18T16:19:29.443Z,91.87
2022-10-18T16:20:29.412Z,91.87
2022-10-18T16:21:29.431Z,91.87
2022-10-18T16:22:31.146Z,92.02
2022-10-18T16:23:29.379Z,92.22
2022-10-18T16:24:29.374Z,92.32
2022-10-18T16:25:29.363Z,92.12
2022-10-18T16:26:29.408Z,91.71
2022-10-18T16:27:32.337Z,92.02
2022-10-18T16:28:29.396Z,92.12
2022-10-18T16:29:29.326Z,92.02
2022-10-18T16:30:29.305Z,92.12
2022-10-18T16:31:29.323Z,92.02
2022-10-18T16:32:29.371Z,92.12
2022-10-18T16:33:29.277Z,92.22
2022-10-18T16:34:29.367Z,92.16
2022-10-18T16:35:29.258Z,92.16
2022-10-18T16:36:29.247Z,92.26
2022-10-18T16:37:29.237Z,92.36
2022-10-18T16:38:32.625Z,92.46
2022-10-18T16:39:29.247Z,92.46
2022-10-18T16:40:29.208Z,92.61
2022-10-18T16:41:29.195Z,92.50
2022-10-18T16:42:32.447Z,92.81
2022-10-18T16:43:29.223Z,93.12
2022-10-18T16:44:29.201Z,93.46
2022-10-18T16:45:29.150Z,93.46
2022-10-18T16:46:29.142Z,93.56
2022-10-18T16:47:29.123Z,94.01
2022-10-18T16:48:29.111Z,94.21
2022-10-18T16:49:29.109Z,94.31
2022-10-18T16:50:30.866Z,94.11
2022-10-18T16:51:29.114Z,94.01
2022-10-18T16:52:29.082Z,94.01
2022-10-18T16:53:29.062Z,93.91
2022-10-18T16:54:29.063Z,94.15
2022-10-18T16:55:29.044Z,94.26
2022-10-18T16:56:29.058Z,94.36
2022-10-18T16:57:32.033Z,94.26
2022-10-18T16:58:29.037Z,94.15
2022-10-18T16:59:29.011Z,94.26
2022-10-18T17:00:28.986Z,94.06
2022-10-18T17:01:29.040Z,94.15
2022-10-18T17:02:28.977Z,94.15
2022-10-18T17:03:28.967Z,94.06
2022-10-18T17:04:28.977Z,94.06
2022-10-18T17:05:28.995Z,93.75
2022-10-18T17:06:29.029Z,93.85
2022-10-18T17:07:28.987Z,93.65
2022-10-18T17:08:28.969Z,93.75
2022-10-18T17:09:28.961Z,93.79
2022-10-18T17:10:28.949Z,94.00
2022-10-18T17:11:28.931Z,94.40
2022-10-18T17:12:32.235Z,94.40
2022-10-18T17:13:28.923Z,94.60
2022-10-18T17:14:28.903Z,94.60
2022-10-18T17:15:32.811Z,94.60
2022-10-18T17:17:28.883Z,94.65
2022-10-18T17:18:28.871Z,94.65
2022-10-18T17:19:28.953Z,94.55
2022-10-18T17:20:28.836Z,94.55
2022-10-18T17:21:28.844Z,94.55
2022-10-18T17:22:28.820Z,94.65
2022-10-18T17:23:28.815Z,94.65
2022-10-18T17:24:28.795Z,94.55
2022-10-18T17:26:29.920Z,94.35
2022-10-18T17:27:32.040Z,94.70
2022-10-18T17:28:28.797Z,94.70
2022-10-18T17:29:28.757Z,94.79
2022-10-18T17:30:28.747Z,94.49
2022-10-18T17:31:28.727Z,94.90
2022-10-18T17:32:28.715Z,94.90
2022-10-18T17:33:28.707Z,95.00
2022-10-18T17:34:28.815Z,94.79
2022-10-18T17:35:28.693Z,94.70
2022-10-18T17:36:28.688Z,94.39
2022-10-18T17:37:28.671Z,94.70
2022-10-18T17:38:28.667Z,94.79
2022-10-18T17:39:28.644Z,94.94
2022-10-18T17:40:28.629Z,94.84
2022-10-18T17:41:28.637Z,95.25
2022-10-18T17:42:31.613Z,95.55
2022-10-18T17:43:28.677Z,95.75
2022-10-18T17:44:28.793Z,95.95
2022-10-18T17:45:28.583Z,96.00
2022-10-18T17:46:28.564Z,96.00
2022-10-18T17:47:28.551Z,96.00
2022-10-18T17:48:28.534Z,96.00
2022-10-18T17:49:28.572Z,95.90
2022-10-18T17:50:28.525Z,95.70
2022-10-18T17:51:28.521Z,95.70
2022-10-18T17:52:28.495Z,95.70
2022-10-18T17:53:28.505Z,95.70
2022-10-18T17:54:28.605Z,95.59
2022-10-18T17:55:28.475Z,95.54
2022-10-18T17:56:28.489Z,95.74
2022-10-18T17:57:31.675Z,96.45
2022-10-18T17:58:28.454Z,96.96
2022-10-18T17:59:28.444Z,97.16
2022-10-18T18:00:28.413Z,97.26
2022-10-18T18:01:28.459Z,97.41
2022-10-18T18:02:28.400Z,97.31
2022-10-18T18:03:28.457Z,97.20
2022-10-18T18:04:28.366Z,97.31
2022-10-18T18:05:28.364Z,97.20
2022-10-18T18:06:28.349Z,97.20
2022-10-18T18:07:28.341Z,96.90
2022-10-18T18:08:28.329Z,96.80
2022-10-18T18:09:28.319Z,97.11
2022-10-18T18:10:28.310Z,97.00
2022-10-18T18:11:28.320Z,97.15
2022-10-18T18:12:31.628Z,97.76
2022-10-18T18:13:28.292Z,97.76
2022-10-18T18:14:28.283Z,97.86
2022-10-18T18:15:28.400Z,97.86
2022-10-18T18:16:28.274Z,97.96
2022-10-18T18:17:33.978Z,97.96
2022-10-18T18:18:29.263Z,97.56
2022-10-18T18:19:28.204Z,97.45
2022-10-18T18:20:28.200Z,97.35
2022-10-18T18:21:28.193Z,97.56
2022-10-18T18:22:28.183Z,97.66
2022-10-18T18:23:28.178Z,97.56
2022-10-18T18:24:28.154Z,97.25
2022-10-18T18:25:28.151Z,97.45
2022-10-18T18:26:28.135Z,97.50
2022-10-18T18:27:31.118Z,97.60
2022-10-18T18:28:28.211Z,97.50
2022-10-18T18:29:28.097Z,97.50
2022-10-18T18:30:28.085Z,97.40
2022-10-18T18:31:30.774Z,97.20
2022-10-18T18:32:28.068Z,96.99
2022-10-18T18:33:28.058Z,97.09
2022-10-18T18:34:28.048Z,96.99
2022-10-18T18:35:28.047Z,97.09
2022-10-18T18:36:28.027Z,97.40
2022-10-18T18:37:28.017Z,97.71
2022-10-18T18:38:28.040Z,97.91
2022-10-18T18:39:28.004Z,97.80
2022-10-18T18:40:27.991Z,97.80
2022-10-18T18:41:27.980Z,97.75
2022-10-18T18:42:31.348Z,97.55
2022-10-18T18:43:28.461Z,97.55
2022-10-18T18:44:28.273Z,97.55
2022-10-18T18:45:27.930Z,97.55
2022-10-18T18:46:27.913Z,97.55
2022-10-18T18:47:27.918Z,97.34
2022-10-18T18:48:27.919Z,97.44
2022-10-18T18:49:27.871Z,97.65
2022-10-18T18:50:27.872Z,97.75
2022-10-18T18:51:27.862Z,97.75
2022-10-18T18:52:27.851Z,97.85
2022-10-18T18:53:29.562Z,97.96
2022-10-18T18:54:27.826Z,97.96
2022-10-18T18:55:27.834Z,97.96
2022-10-18T18:56:27.804Z,97.85
2022-10-18T18:57:31.035Z,98.00
2022-10-18T18:58:27.795Z,98.10
2022-10-18T18:59:27.780Z,98.10
2022-10-18T19:00:27.854Z,98.41
2022-10-18T19:01:27.782Z,99.02
2022-10-18T19:02:27.787Z,99.42
2022-10-18T19:03:27.736Z,98.91
2022-10-18T19:04:27.732Z,98.91
2022-10-18T19:05:27.730Z,99.32
2022-10-18T19:06:27.709Z,99.02
2022-10-18T19:07:27.689Z,99.22
2022-10-18T19:08:27.665Z,99.32
2022-10-18T19:09:27.670Z,99.42
2022-10-18T19:10:27.683Z,99.42
2022-10-18T19:11:27.636Z,99.42
2022-10-18T19:12:31.791Z,99.02
2022-10-18T19:13:27.643Z,99.32
2022-10-18T19:14:27.709Z,99.83
2022-10-18T19:15:27.650Z,99.99
2022-10-18T19:16:27.599Z,99.99
2022-10-18T19:17:27.591Z,99.99
2022-10-18T19:18:27.582Z,99.99
2022-10-18T19:19:27.571Z,99.99
2022-10-18T19:20:27.562Z,99.99
2022-10-18T19:21:27.539Z,99.99
2022-10-18T19:22:27.530Z,99.99
2022-10-18T19:23:27.563Z,99.99
2022-10-18T19:24:27.529Z,99.99
2022-10-18T19:25:27.502Z,99.88
2022-10-18T19:26:27.498Z,99.27
2022-10-18T19:27:30.679Z,99.16
2022-10-18T19:28:27.573Z,99.47
2022-10-18T19:29:27.460Z,99.77
2022-10-18T19:30:27.478Z,99.77
2022-10-18T19:31:27.447Z,99.88
2022-10-18T19:33:41.242Z,99.88
2022-10-18T19:34:28.420Z,99.88
2022-10-18T19:35:27.395Z,99.77
2022-10-18T19:36:27.403Z,99.52
2022-10-18T19:37:27.428Z,99.31
2022-10-18T19:38:27.386Z,99.41
2022-10-18T19:39:27.366Z,99.52
2022-10-18T19:40:27.348Z,99.72
2022-10-18T19:41:27.352Z,99.72
2022-10-18T19:42:31.432Z,99.72
2022-10-18T19:43:27.349Z,99.62
2022-10-18T19:44:27.312Z,99.62
2022-10-18T19:45:27.334Z,99.52
2022-10-18T19:46:27.305Z,99.52
2022-10-18T19:47:27.269Z,99.41
2022-10-18T19:48:27.264Z,99.41
2022-10-18T19:49:27.253Z,99.21
2022-10-18T19:50:27.359Z,98.91
2022-10-18T19:51:28.491Z,98.80
2022-10-18T19:52:27.239Z,98.80
2022-10-18T19:53:27.288Z,98.80
2022-10-18T19:54:27.203Z,98.85
2022-10-18T19:55:27.289Z,98.85
2022-10-18T19:56:27.185Z,98.75
2022-10-18T19:57:30.179Z,98.75
2022-10-18T19:58:27.189Z,98.75
2022-10-18T19:59:27.248Z,98.65
2022-10-18T20:00:27.398Z,98.65
2022-10-18T20:01:27.192Z,98.65
2022-10-18T20:02:27.255Z,98.34
2022-10-18T20:03:27.127Z,98.75
2022-10-18T20:04:27.120Z,98.95
2022-10-18T20:05:27.114Z,99.05
2022-10-18T20:06:27.131Z,99.16
2022-10-18T20:07:27.159Z,99.26
2022-10-18T20:08:27.070Z,99.26
2022-10-18T20:09:27.057Z,99.36
2022-10-18T20:10:27.052Z,99.46
2022-10-18T20:11:27.026Z,99.36
2022-10-18T20:12:30.384Z,99.41
2022-10-18T20:13:27.027Z,99.26
2022-10-18T20:14:27.020Z,99.10
2022-10-18T20:15:27.010Z,98.90
2022-10-18T20:16:28.518Z,99.61
2022-10-18T20:17:26.980Z,99.99
2022-10-18T20:18:26.973Z,99.99
2022-10-18T20:19:26.960Z,99.99
2022-10-18T20:20:26.973Z,99.99
2022-10-18T20:21:26.940Z,99.99
2022-10-18T20:22:26.962Z,99.99
2022-10-18T20:23:26.924Z,99.99
2022-10-18T20:24:26.914Z,99.99
2022-10-18T20:25:26.903Z,99.91
2022-10-18T20:26:26.890Z,99.71
2022-10-18T20:27:30.388Z,99.61
2022-10-18T20:28:26.935Z,99.61
2022-10-18T20:29:26.916Z,99.71
2022-10-18T20:30:26.859Z,99.81
2022-10-18T20:31:26.848Z,99.81